sensor_id;sensor_type;location;lat;lon;timestamp;pressure;altitude;pressure_sealevel;temperature;humidity
26807;BME280;14380;49.910;6.792;2023-06-04T00:00:25;99038.13;;;11.53;95.58
26807;BME280;14380;49.910;6.792;2023-06-04T00:02:51;99040.81;;;11.20;98.73
26807;BME280;14380;49.910;6.792;2023-06-04T00:05:20;99039.81;;;11.22;98.91
26807;BME280;14380;49.910;6.792;2023-06-04T00:07:47;99034.22;;;11.60;93.26
26807;BME280;14380;49.910;6.792;2023-06-04T00:10:14;99040.88;;;11.68;93.28
26807;BME280;14380;49.910;6.792;2023-06-04T00:12:41;99032.34;;;11.47;95.72
26807;BME280;14380;49.910;6.792;2023-06-04T00:15:07;99031.47;;;11.62;94.23
26807;BME280;14380;49.910;6.792;2023-06-04T00:17:34;99032.06;;;11.67;93.57
26807;BME280;14380;49.910;6.792;2023-06-04T00:20:01;99028.94;;;11.60;94.54
26807;BME280;14380;49.910;6.792;2023-06-04T00:22:29;99035.47;;;11.37;96.30
26807;BME280;14380;49.910;6.792;2023-06-04T00:24:55;99026.34;;;11.43;96.38
26807;BME280;14380;49.910;6.792;2023-06-04T00:27:22;99027.28;;;11.42;96.60
26807;BME280;14380;49.910;6.792;2023-06-04T00:29:48;99035.28;;;11.24;96.63
26807;BME280;14380;49.910;6.792;2023-06-04T00:32:15;99027.88;;;11.47;95.34
26807;BME280;14380;49.910;6.792;2023-06-04T00:34:41;99034.00;;;11.31;97.39
26807;BME280;14380;49.910;6.792;2023-06-04T00:37:08;99028.28;;;11.23;97.45
26807;BME280;14380;49.910;6.792;2023-06-04T00:39:36;99032.03;;;11.19;97.67
26807;BME280;14380;49.910;6.792;2023-06-04T00:42:02;99031.94;;;11.21;96.34
26807;BME280;14380;49.910;6.792;2023-06-04T00:44:30;99038.34;;;11.33;94.98
26807;BME280;14380;49.910;6.792;2023-06-04T00:46:57;99036.41;;;11.36;93.96
26807;BME280;14380;49.910;6.792;2023-06-04T00:49:24;99042.69;;;11.34;94.92
26807;BME280;14380;49.910;6.792;2023-06-04T00:51:50;99036.31;;;11.38;93.76
26807;BME280;14380;49.910;6.792;2023-06-04T00:54:19;99038.34;;;11.33;92.02
26807;BME280;14380;49.910;6.792;2023-06-04T00:56:47;99040.47;;;11.26;93.02
26807;BME280;14380;49.910;6.792;2023-06-04T00:59:14;99039.34;;;11.14;94.41
26807;BME280;14380;49.910;6.792;2023-06-04T01:01:45;99025.16;;;10.99;96.42
26807;BME280;14380;49.910;6.792;2023-06-04T01:04:20;99038.28;;;11.00;96.38
26807;BME280;14380;49.910;6.792;2023-06-04T01:06:50;99030.03;;;11.07;95.30
26807;BME280;14380;49.910;6.792;2023-06-04T01:09:18;99025.09;;;11.16;94.35
26807;BME280;14380;49.910;6.792;2023-06-04T01:11:44;99026.25;;;10.95;93.90
26807;BME280;14380;49.910;6.792;2023-06-04T01:14:12;99026.47;;;10.90;95.09
26807;BME280;14380;49.910;6.792;2023-06-04T01:16:45;99027.97;;;10.78;95.49
26807;BME280;14380;49.910;6.792;2023-06-04T01:19:36;99025.28;;;10.80;96.98
26807;BME280;14380;49.910;6.792;2023-06-04T01:22:10;99028.34;;;10.88;96.30
26807;BME280;14380;49.910;6.792;2023-06-04T01:24:43;99026.28;;;10.42;99.91
26807;BME280;14380;49.910;6.792;2023-06-04T01:27:12;99032.25;;;10.28;99.15
26807;BME280;14380;49.910;6.792;2023-06-04T01:29:42;99031.63;;;10.40;100.00
26807;BME280;14380;49.910;6.792;2023-06-04T01:32:10;99030.38;;;10.30;100.00
26807;BME280;14380;49.910;6.792;2023-06-04T01:34:43;99026.44;;;10.39;98.92
26807;BME280;14380;49.910;6.792;2023-06-04T01:37:10;99026.50;;;10.37;97.57
26807;BME280;14380;49.910;6.792;2023-06-04T01:39:37;99033.81;;;10.50;95.84
26807;BME280;14380;49.910;6.792;2023-06-04T01:42:05;99030.88;;;10.56;94.67
26807;BME280;14380;49.910;6.792;2023-06-04T01:44:31;99028.88;;;10.24;97.75
26807;BME280;14380;49.910;6.792;2023-06-04T01:46:59;99030.06;;;10.19;97.40
26807;BME280;14380;49.910;6.792;2023-06-04T01:49:26;99033.59;;;10.54;96.68
26807;BME280;14380;49.910;6.792;2023-06-04T01:51:52;99030.72;;;10.41;98.75
26807;BME280;14380;49.910;6.792;2023-06-04T01:54:19;99027.63;;;9.77;100.00
26807;BME280;14380;49.910;6.792;2023-06-04T01:56:46;99020.97;;;10.07;100.00
26807;BME280;14380;49.910;6.792;2023-06-04T01:59:13;99015.91;;;10.02;100.00
26807;BME280;14380;49.910;6.792;2023-06-04T02:01:41;99021.06;;;10.23;97.41
26807;BME280;14380;49.910;6.792;2023-06-04T02:04:09;99020.34;;;10.37;96.75
26807;BME280;14380;49.910;6.792;2023-06-04T02:06:36;99017.25;;;10.11;99.17
26807;BME280;14380;49.910;6.792;2023-06-04T02:09:03;99016.63;;;10.06;99.61
26807;BME280;14380;49.910;6.792;2023-06-04T02:11:29;99020.84;;;9.72;100.00
26807;BME280;14380;49.910;6.792;2023-06-04T02:13:56;99013.75;;;10.10;98.09
26807;BME280;14380;49.910;6.792;2023-06-04T02:16:23;99020.47;;;9.99;98.96
26807;BME280;14380;49.910;6.792;2023-06-04T02:18:49;99020.44;;;9.81;99.98
26807;BME280;14380;49.910;6.792;2023-06-04T02:21:17;99015.97;;;10.01;98.79
26807;BME280;14380;49.910;6.792;2023-06-04T02:23:44;99018.91;;;9.94;98.33
26807;BME280;14380;49.910;6.792;2023-06-04T02:26:10;99023.56;;;9.89;100.00
26807;BME280;14380;49.910;6.792;2023-06-04T02:28:37;99014.72;;;9.90;97.53
26807;BME280;14380;49.910;6.792;2023-06-04T02:31:03;99018.22;;;9.72;100.00
26807;BME280;14380;49.910;6.792;2023-06-04T02:33:30;99021.28;;;9.81;98.43
26807;BME280;14380;49.910;6.792;2023-06-04T02:35:56;99024.66;;;9.66;100.00
26807;BME280;14380;49.910;6.792;2023-06-04T02:38:24;99022.13;;;9.82;98.49
26807;BME280;14380;49.910;6.792;2023-06-04T02:40:51;99017.13;;;9.58;100.00
26807;BME280;14380;49.910;6.792;2023-06-04T02:43:17;99021.09;;;9.48;99.92
26807;BME280;14380;49.910;6.792;2023-06-04T02:45:44;99022.25;;;9.42;100.00
26807;BME280;14380;49.910;6.792;2023-06-04T02:48:11;99029.56;;;9.74;98.06
26807;BME280;14380;49.910;6.792;2023-06-04T02:50:37;99024.44;;;9.71;98.64
26807;BME280;14380;49.910;6.792;2023-06-04T02:53:07;99027.56;;;9.41;100.00
26807;BME280;14380;49.910;6.792;2023-06-04T02:55:35;99017.81;;;9.62;98.97
26807;BME280;14380;49.910;6.792;2023-06-04T02:58:02;99019.66;;;9.60;98.79
26807;BME280;14380;49.910;6.792;2023-06-04T03:00:29;99018.97;;;9.56;98.94
26807;BME280;14380;49.910;6.792;2023-06-04T03:02:55;99013.47;;;9.61;98.31
26807;BME280;14380;49.910;6.792;2023-06-04T03:05:27;99016.84;;;9.45;100.00
26807;BME280;14380;49.910;6.792;2023-06-04T03:07:56;99019.38;;;9.28;100.00
26807;BME280;14380;49.910;6.792;2023-06-04T03:10:23;99014.03;;;9.29;100.00
26807;BME280;14380;49.910;6.792;2023-06-04T03:12:51;99021.75;;;9.34;100.00
26807;BME280;14380;49.910;6.792;2023-06-04T03:15:18;99024.75;;;9.26;100.00
26807;BME280;14380;49.910;6.792;2023-06-04T03:17:45;99028.47;;;9.01;100.00
26807;BME280;14380;49.910;6.792;2023-06-04T03:20:11;99029.97;;;9.07;100.00
26807;BME280;14380;49.910;6.792;2023-06-04T03:22:38;99023.72;;;9.29;100.00
26807;BME280;14380;49.910;6.792;2023-06-04T03:25:05;99027.38;;;9.26;100.00
26807;BME280;14380;49.910;6.792;2023-06-04T03:27:32;99022.59;;;9.34;100.00
26807;BME280;14380;49.910;6.792;2023-06-04T03:30:00;99031.56;;;9.30;100.00
26807;BME280;14380;49.910;6.792;2023-06-04T03:32:27;99026.78;;;9.38;100.00
26807;BME280;14380;49.910;6.792;2023-06-04T03:34:53;99027.44;;;9.25;100.00
26807;BME280;14380;49.910;6.792;2023-06-04T03:37:20;99025.22;;;9.15;100.00
26807;BME280;14380;49.910;6.792;2023-06-04T03:39:46;99022.44;;;9.18;100.00
26807;BME280;14380;49.910;6.792;2023-06-04T03:42:13;99021.91;;;9.10;100.00
26807;BME280;14380;49.910;6.792;2023-06-04T03:44:39;99017.44;;;9.12;100.00
26807;BME280;14380;49.910;6.792;2023-06-04T03:47:07;99029.34;;;8.81;100.00
26807;BME280;14380;49.910;6.792;2023-06-04T03:49:34;99034.78;;;9.18;100.00
26807;BME280;14380;49.910;6.792;2023-06-04T03:52:00;99025.44;;;9.30;100.00
26807;BME280;14380;49.910;6.792;2023-06-04T03:54:27;99026.50;;;9.26;100.00
26807;BME280;14380;49.910;6.792;2023-06-04T03:56:53;99029.28;;;9.22;100.00
26807;BME280;14380;49.910;6.792;2023-06-04T03:59:20;99028.59;;;9.38;100.00
26807;BME280;14380;49.910;6.792;2023-06-04T04:01:47;99036.19;;;9.25;100.00
26807;BME280;14380;49.910;6.792;2023-06-04T04:04:15;99031.16;;;9.95;99.08
26807;BME280;14380;49.910;6.792;2023-06-04T04:06:42;99033.44;;;10.03;100.00
26807;BME280;14380;49.910;6.792;2023-06-04T04:09:09;99029.34;;;10.15;97.68
26807;BME280;14380;49.910;6.792;2023-06-04T04:11:35;99028.78;;;10.45;98.12
26807;BME280;14380;49.910;6.792;2023-06-04T04:14:02;99029.00;;;10.40;99.63
26807;BME280;14380;49.910;6.792;2023-06-04T04:16:28;99023.47;;;10.80;99.44
26807;BME280;14380;49.910;6.792;2023-06-04T04:18:55;99024.00;;;10.87;99.87
26807;BME280;14380;49.910;6.792;2023-06-04T04:21:23;99037.72;;;10.60;97.30
26807;BME280;14380;49.910;6.792;2023-06-04T04:23:50;99030.19;;;11.53;93.81
26807;BME280;14380;49.910;6.792;2023-06-04T04:26:17;99030.69;;;11.44;92.60
26807;BME280;14380;49.910;6.792;2023-06-04T04:28:44;99031.81;;;11.88;90.98
26807;BME280;14380;49.910;6.792;2023-06-04T04:31:11;99034.97;;;12.11;90.67
26807;BME280;14380;49.910;6.792;2023-06-04T04:33:37;99033.00;;;11.98;94.23
26807;BME280;14380;49.910;6.792;2023-06-04T04:36:05;99041.03;;;12.13;94.00
26807;BME280;14380;49.910;6.792;2023-06-04T04:38:36;99037.50;;;12.28;95.57
26807;BME280;14380;49.910;6.792;2023-06-04T04:41:03;99029.53;;;12.44;88.78
26807;BME280;14380;49.910;6.792;2023-06-04T04:43:34;99030.44;;;12.88;90.70
26807;BME280;14380;49.910;6.792;2023-06-04T04:46:00;99039.75;;;12.96;87.36
26807;BME280;14380;49.910;6.792;2023-06-04T04:48:27;99041.16;;;12.87;92.80
26807;BME280;14380;49.910;6.792;2023-06-04T04:50:53;99048.19;;;13.02;90.86
26807;BME280;14380;49.910;6.792;2023-06-04T04:53:20;99034.84;;;13.62;87.64
26807;BME280;14380;49.910;6.792;2023-06-04T04:55:48;99041.66;;;13.93;85.59
26807;BME280;14380;49.910;6.792;2023-06-04T04:58:15;99041.53;;;13.67;87.61
26807;BME280;14380;49.910;6.792;2023-06-04T05:00:42;99047.50;;;12.99;88.17
26807;BME280;14380;49.910;6.792;2023-06-04T05:03:08;99049.72;;;13.50;87.57
26807;BME280;14380;49.910;6.792;2023-06-04T05:05:35;99044.03;;;13.27;87.95
26807;BME280;14380;49.910;6.792;2023-06-04T05:08:01;99033.19;;;13.74;88.20
26807;BME280;14380;49.910;6.792;2023-06-04T05:10:28;99035.16;;;14.52;83.97
26807;BME280;14380;49.910;6.792;2023-06-04T05:12:58;99032.56;;;14.38;87.61
26807;BME280;14380;49.910;6.792;2023-06-04T05:15:26;99041.44;;;14.64;84.50
26807;BME280;14380;49.910;6.792;2023-06-04T05:17:55;99045.56;;;14.96;87.10
26807;BME280;14380;49.910;6.792;2023-06-04T05:20:23;99046.16;;;15.51;81.08
26807;BME280;14380;49.910;6.792;2023-06-04T05:22:50;99046.97;;;14.61;84.35
26807;BME280;14380;49.910;6.792;2023-06-04T05:25:17;99050.78;;;15.10;82.80
26807;BME280;14380;49.910;6.792;2023-06-04T05:27:43;99056.41;;;15.06;84.86
26807;BME280;14380;49.910;6.792;2023-06-04T05:30:12;99052.38;;;15.13;88.75
26807;BME280;14380;49.910;6.792;2023-06-04T05:32:39;99047.38;;;15.71;82.48
26807;BME280;14380;49.910;6.792;2023-06-04T05:35:07;99054.25;;;16.48;80.01
26807;BME280;14380;49.910;6.792;2023-06-04T05:37:34;99053.84;;;15.17;83.17
26807;BME280;14380;49.910;6.792;2023-06-04T05:40:03;99061.16;;;15.65;80.88
26807;BME280;14380;49.910;6.792;2023-06-04T05:42:32;99063.91;;;15.64;81.82
26807;BME280;14380;49.910;6.792;2023-06-04T05:44:58;99055.72;;;16.53;80.29
26807;BME280;14380;49.910;6.792;2023-06-04T05:47:27;99060.78;;;16.20;78.53
26807;BME280;14380;49.910;6.792;2023-06-04T05:49:54;99062.06;;;16.63;75.66
26807;BME280;14380;49.910;6.792;2023-06-04T05:52:20;99060.75;;;16.33;77.52
26807;BME280;14380;49.910;6.792;2023-06-04T05:54:47;99057.63;;;17.22;78.67
26807;BME280;14380;49.910;6.792;2023-06-04T05:57:14;99050.59;;;16.85;73.98
26807;BME280;14380;49.910;6.792;2023-06-04T05:59:40;99052.75;;;17.50;73.68
26807;BME280;14380;49.910;6.792;2023-06-04T06:02:07;99047.28;;;17.74;68.47
26807;BME280;14380;49.910;6.792;2023-06-04T06:04:35;99049.41;;;17.92;72.30
26807;BME280;14380;49.910;6.792;2023-06-04T06:07:01;99056.97;;;17.75;68.71
26807;BME280;14380;49.910;6.792;2023-06-04T06:09:28;99061.25;;;17.44;65.65
26807;BME280;14380;49.910;6.792;2023-06-04T06:11:54;99065.34;;;17.71;64.99
26807;BME280;14380;49.910;6.792;2023-06-04T06:14:21;99057.47;;;17.80;64.87
26807;BME280;14380;49.910;6.792;2023-06-04T06:16:48;99062.91;;;18.02;66.62
26807;BME280;14380;49.910;6.792;2023-06-04T06:19:15;99066.66;;;18.43;64.77
26807;BME280;14380;49.910;6.792;2023-06-04T06:21:43;99064.78;;;18.55;64.27
26807;BME280;14380;49.910;6.792;2023-06-04T06:24:10;99073.09;;;18.40;68.44
26807;BME280;14380;49.910;6.792;2023-06-04T06:26:37;99066.44;;;18.35;63.43
26807;BME280;14380;49.910;6.792;2023-06-04T06:29:03;99064.53;;;18.58;61.51
26807;BME280;14380;49.910;6.792;2023-06-04T06:31:30;99068.19;;;18.57;64.59
26807;BME280;14380;49.910;6.792;2023-06-04T06:33:56;99068.25;;;18.88;65.54
26807;BME280;14380;49.910;6.792;2023-06-04T06:36:23;99065.63;;;18.77;63.06
26807;BME280;14380;49.910;6.792;2023-06-04T06:38:51;99069.69;;;18.92;63.26
26807;BME280;14380;49.910;6.792;2023-06-04T06:41:17;99067.41;;;18.66;63.18
26807;BME280;14380;49.910;6.792;2023-06-04T06:43:44;99080.75;;;19.20;63.35
26807;BME280;14380;49.910;6.792;2023-06-04T06:46:10;99080.38;;;19.04;61.14
26807;BME280;14380;49.910;6.792;2023-06-04T06:48:37;99073.69;;;19.40;63.54
26807;BME280;14380;49.910;6.792;2023-06-04T06:51:03;99082.91;;;19.05;62.13
26807;BME280;14380;49.910;6.792;2023-06-04T06:53:30;99088.94;;;18.65;60.54
26807;BME280;14380;49.910;6.792;2023-06-04T06:55:58;99081.38;;;18.70;61.04
26807;BME280;14380;49.910;6.792;2023-06-04T06:58:24;99085.94;;;18.79;62.42
26807;BME280;14380;49.910;6.792;2023-06-04T07:00:51;99091.69;;;18.53;62.25
26807;BME280;14380;49.910;6.792;2023-06-04T07:03:19;99083.59;;;18.86;61.49
26807;BME280;14380;49.910;6.792;2023-06-04T07:05:47;99086.72;;;18.91;62.08
26807;BME280;14380;49.910;6.792;2023-06-04T07:08:13;99083.31;;;18.68;61.29
26807;BME280;14380;49.910;6.792;2023-06-04T07:10:41;99082.66;;;18.22;60.46
26807;BME280;14380;49.910;6.792;2023-06-04T07:13:09;99081.25;;;18.71;62.02
26807;BME280;14380;49.910;6.792;2023-06-04T07:15:36;99079.09;;;18.98;60.29
26807;BME280;14380;49.910;6.792;2023-06-04T07:18:02;99074.13;;;19.24;59.70
26807;BME280;14380;49.910;6.792;2023-06-04T07:20:29;99077.28;;;19.08;60.08
26807;BME280;14380;49.910;6.792;2023-06-04T07:22:56;99078.59;;;19.35;59.34
26807;BME280;14380;49.910;6.792;2023-06-04T07:25:22;99083.59;;;19.28;59.07
26807;BME280;14380;49.910;6.792;2023-06-04T07:27:51;99084.59;;;19.58;58.58
26807;BME280;14380;49.910;6.792;2023-06-04T07:30:19;99072.59;;;19.53;58.17
26807;BME280;14380;49.910;6.792;2023-06-04T07:32:46;99070.94;;;19.61;58.13
26807;BME280;14380;49.910;6.792;2023-06-04T07:35:13;99079.34;;;19.47;57.17
26807;BME280;14380;49.910;6.792;2023-06-04T07:37:40;99077.81;;;19.54;56.98
26807;BME280;14380;49.910;6.792;2023-06-04T07:40:07;99090.19;;;19.24;57.62
26807;BME280;14380;49.910;6.792;2023-06-04T07:42:34;99079.34;;;19.47;55.65
26807;BME280;14380;49.910;6.792;2023-06-04T07:45:00;99083.66;;;19.38;56.27
26807;BME280;14380;49.910;6.792;2023-06-04T07:47:28;99090.34;;;19.54;56.26
26807;BME280;14380;49.910;6.792;2023-06-04T07:49:55;99086.28;;;19.90;56.43
26807;BME280;14380;49.910;6.792;2023-06-04T07:52:21;99082.97;;;19.77;55.26
26807;BME280;14380;49.910;6.792;2023-06-04T07:54:48;99093.72;;;19.87;56.19
26807;BME280;14380;49.910;6.792;2023-06-04T07:57:15;99083.78;;;20.09;54.55
26807;BME280;14380;49.910;6.792;2023-06-04T07:59:41;99080.13;;;20.00;54.89
26807;BME280;14380;49.910;6.792;2023-06-04T08:02:08;99085.69;;;19.87;56.06
26807;BME280;14380;49.910;6.792;2023-06-04T08:04:36;99079.56;;;20.16;53.94
26807;BME280;14380;49.910;6.792;2023-06-04T08:07:02;99075.63;;;20.20;54.71
26807;BME280;14380;49.910;6.792;2023-06-04T08:09:29;99087.56;;;19.96;56.17
26807;BME280;14380;49.910;6.792;2023-06-04T08:11:56;99079.41;;;20.17;54.73
26807;BME280;14380;49.910;6.792;2023-06-04T08:14:22;99080.16;;;20.39;54.26
26807;BME280;14380;49.910;6.792;2023-06-04T08:16:52;99076.22;;;20.73;54.90
26807;BME280;14380;49.910;6.792;2023-06-04T08:19:18;99074.25;;;20.85;54.09
26807;BME280;14380;49.910;6.792;2023-06-04T08:21:46;99066.91;;;20.87;54.39
26807;BME280;14380;49.910;6.792;2023-06-04T08:24:13;99065.47;;;20.73;54.66
26807;BME280;14380;49.910;6.792;2023-06-04T08:26:39;99057.28;;;20.64;55.02
26807;BME280;14380;49.910;6.792;2023-06-04T08:29:07;99059.69;;;20.68;54.68
26807;BME280;14380;49.910;6.792;2023-06-04T08:31:33;99062.72;;;21.22;55.77
26807;BME280;14380;49.910;6.792;2023-06-04T08:34:00;99064.75;;;21.00;54.27
26807;BME280;14380;49.910;6.792;2023-06-04T08:36:30;99062.47;;;21.63;56.37
26807;BME280;14380;49.910;6.792;2023-06-04T08:38:59;99061.31;;;21.18;55.58
26807;BME280;14380;49.910;6.792;2023-06-04T08:41:28;99062.06;;;21.10;53.43
26807;BME280;14380;49.910;6.792;2023-06-04T08:43:56;99066.91;;;20.87;54.44
26807;BME280;14380;49.910;6.792;2023-06-04T08:46:23;99062.94;;;20.91;55.62
26807;BME280;14380;49.910;6.792;2023-06-04T08:48:50;99062.66;;;20.94;55.36
26807;BME280;14380;49.910;6.792;2023-06-04T08:51:17;99063.47;;;21.14;54.60
26807;BME280;14380;49.910;6.792;2023-06-04T08:53:44;99059.41;;;21.38;54.76
26807;BME280;14380;49.910;6.792;2023-06-04T08:56:14;99061.56;;;21.72;55.92
26807;BME280;14380;49.910;6.792;2023-06-04T08:58:43;99068.69;;;21.53;55.79
26807;BME280;14380;49.910;6.792;2023-06-04T09:01:10;99079.84;;;21.59;55.04
26807;BME280;14380;49.910;6.792;2023-06-04T09:03:37;99074.66;;;21.85;55.57
26807;BME280;14380;49.910;6.792;2023-06-04T09:06:05;99070.69;;;21.42;54.61
26807;BME280;14380;49.910;6.792;2023-06-04T09:08:34;99078.72;;;21.89;54.86
26807;BME280;14380;49.910;6.792;2023-06-04T09:11:05;99068.97;;;22.34;54.72
26807;BME280;14380;49.910;6.792;2023-06-04T09:13:34;99069.47;;;22.20;54.84
26807;BME280;14380;49.910;6.792;2023-06-04T09:16:02;99066.50;;;21.77;54.59
26807;BME280;14380;49.910;6.792;2023-06-04T09:18:29;99072.44;;;22.81;54.93
26807;BME280;14380;49.910;6.792;2023-06-04T09:21:03;99073.53;;;22.52;52.52
26807;BME280;14380;49.910;6.792;2023-06-04T09:23:31;99072.00;;;22.03;54.84
26807;BME280;14380;49.910;6.792;2023-06-04T09:26:06;99082.81;;;21.93;54.57
26807;BME280;14380;49.910;6.792;2023-06-04T09:28:34;99073.44;;;21.97;55.77
26807;BME280;14380;49.910;6.792;2023-06-04T09:31:01;99075.59;;;21.94;53.64
26807;BME280;14380;49.910;6.792;2023-06-04T09:33:28;99074.44;;;22.61;58.29
26807;BME280;14380;49.910;6.792;2023-06-04T09:35:55;99058.44;;;23.03;54.66
26807;BME280;14380;49.910;6.792;2023-06-04T09:38:22;99071.63;;;22.88;57.61
26807;BME280;14380;49.910;6.792;2023-06-04T09:43:21;99059.34;;;22.32;54.72
26807;BME280;14380;49.910;6.792;2023-06-04T09:45:49;99066.81;;;22.56;53.51
26807;BME280;14380;49.910;6.792;2023-06-04T09:48:19;99069.66;;;22.72;53.93
26807;BME280;14380;49.910;6.792;2023-06-04T09:50:46;99067.78;;;22.47;54.33
26807;BME280;14380;49.910;6.792;2023-06-04T09:53:13;99057.47;;;22.86;54.90
26807;BME280;14380;49.910;6.792;2023-06-04T09:55:41;99064.75;;;23.12;55.96
26807;BME280;14380;49.910;6.792;2023-06-04T09:58:08;99072.56;;;23.24;58.63
26807;BME280;14380;49.910;6.792;2023-06-04T10:00:36;99062.97;;;22.77;54.98
26807;BME280;14380;49.910;6.792;2023-06-04T10:03:07;99062.72;;;23.41;54.74
26807;BME280;14380;49.910;6.792;2023-06-04T10:05:36;99064.44;;;23.15;53.47
26807;BME280;14380;49.910;6.792;2023-06-04T10:08:03;99069.66;;;23.17;53.51
26807;BME280;14380;49.910;6.792;2023-06-04T10:10:34;99055.97;;;23.71;51.46
26807;BME280;14380;49.910;6.792;2023-06-04T10:13:05;99071.69;;;23.41;54.13
26807;BME280;14380;49.910;6.792;2023-06-04T10:15:32;99062.59;;;23.85;54.01
26807;BME280;14380;49.910;6.792;2023-06-04T10:18:01;99048.69;;;24.06;54.35
26807;BME280;14380;49.910;6.792;2023-06-04T10:20:30;99060.53;;;23.71;53.81
26807;BME280;14380;49.910;6.792;2023-06-04T10:22:57;99061.66;;;24.03;55.03
26807;BME280;14380;49.910;6.792;2023-06-04T10:25:26;99054.44;;;24.03;52.53
26807;BME280;14380;49.910;6.792;2023-06-04T10:27:52;99052.25;;;24.07;51.24
26807;BME280;14380;49.910;6.792;2023-06-04T10:30:19;99061.81;;;23.58;52.16
26807;BME280;14380;49.910;6.792;2023-06-04T10:32:46;99049.84;;;23.53;51.27
26807;BME280;14380;49.910;6.792;2023-06-04T10:35:13;99040.78;;;24.05;52.15
26807;BME280;14380;49.910;6.792;2023-06-04T10:37:42;99051.69;;;23.95;52.00
26807;BME280;14380;49.910;6.792;2023-06-04T10:40:09;99066.66;;;23.89;52.64
26807;BME280;14380;49.910;6.792;2023-06-04T10:42:41;99048.53;;;24.08;50.38
26807;BME280;14380;49.910;6.792;2023-06-04T10:45:09;99049.91;;;24.20;51.95
26807;BME280;14380;49.910;6.792;2023-06-04T10:47:36;99054.66;;;23.84;49.55
26807;BME280;14380;49.910;6.792;2023-06-04T10:50:09;99048.13;;;24.79;51.35
26807;BME280;14380;49.910;6.792;2023-06-04T10:52:37;99053.63;;;24.44;51.28
26807;BME280;14380;49.910;6.792;2023-06-04T10:55:07;99052.84;;;24.93;50.32
26807;BME280;14380;49.910;6.792;2023-06-04T10:57:34;99051.09;;;24.51;53.04
26807;BME280;14380;49.910;6.792;2023-06-04T11:00:02;99045.56;;;25.02;50.68
26807;BME280;14380;49.910;6.792;2023-06-04T11:02:31;99048.59;;;24.99;52.02
26807;BME280;14380;49.910;6.792;2023-06-04T11:05:01;99055.50;;;24.60;49.94
26807;BME280;14380;49.910;6.792;2023-06-04T11:07:40;99048.59;;;24.99;51.33
26807;BME280;14380;49.910;6.792;2023-06-04T11:10:09;99054.34;;;24.71;49.36
26807;BME280;14380;49.910;6.792;2023-06-04T11:12:41;99047.59;;;24.59;51.15
26807;BME280;14380;49.910;6.792;2023-06-04T11:15:09;99040.78;;;24.05;48.37
26807;BME280;14380;49.910;6.792;2023-06-04T11:17:36;99051.47;;;24.48;50.06
26807;BME280;14380;49.910;6.792;2023-06-04T11:20:03;99044.00;;;25.08;50.32
26807;BME280;14380;49.910;6.792;2023-06-04T11:22:32;99038.88;;;25.38;51.14
26807;BME280;14380;49.910;6.792;2023-06-04T11:24:58;99034.25;;;24.49;49.15
26807;BME280;14380;49.910;6.792;2023-06-04T11:27:26;99035.78;;;24.52;50.39
26807;BME280;14380;49.910;6.792;2023-06-04T11:29:53;99045.88;;;24.33;47.19
26807;BME280;14380;49.910;6.792;2023-06-04T11:32:23;99030.19;;;24.28;48.13
26807;BME280;14380;49.910;6.792;2023-06-04T11:34:49;99044.88;;;24.59;49.60
26807;BME280;14380;49.910;6.792;2023-06-04T11:37:16;99037.47;;;24.69;48.59
26807;BME280;14380;49.910;6.792;2023-06-04T11:39:42;99037.16;;;24.72;49.24
26807;BME280;14380;49.910;6.792;2023-06-04T11:42:10;99029.69;;;24.49;47.16
26807;BME280;14380;49.910;6.792;2023-06-04T11:44:38;99039.50;;;24.75;48.57
26807;BME280;14380;49.910;6.792;2023-06-04T11:47:10;99033.59;;;24.80;48.36
26807;BME280;14380;49.910;6.792;2023-06-04T11:49:39;99030.56;;;25.56;49.22
26807;BME280;14380;49.910;6.792;2023-06-04T11:52:08;99016.97;;;25.16;47.78
26807;BME280;14380;49.910;6.792;2023-06-04T11:54:35;99024.97;;;25.58;50.10
26807;BME280;14380;49.910;6.792;2023-06-04T11:57:04;99026.56;;;25.27;47.08
26807;BME280;14380;49.910;6.792;2023-06-04T11:59:31;99029.66;;;25.72;48.61
26807;BME280;14380;49.910;6.792;2023-06-04T12:01:59;99026.03;;;25.48;48.05
26807;BME280;14380;49.910;6.792;2023-06-04T12:04:29;99028.41;;;25.83;49.74
26807;BME280;14380;49.910;6.792;2023-06-04T12:06:57;99031.19;;;25.10;47.61
26807;BME280;14380;49.910;6.792;2023-06-04T12:09:27;99026.91;;;25.24;47.77
26807;BME280;14380;49.910;6.792;2023-06-04T12:11:57;99031.31;;;25.25;48.22
26807;BME280;14380;49.910;6.792;2023-06-04T12:14:25;99026.41;;;25.29;49.30
26807;BME280;14380;49.910;6.792;2023-06-04T12:16:55;99030.44;;;25.81;48.19
26807;BME280;14380;49.910;6.792;2023-06-04T12:19:23;99023.25;;;25.96;47.86
26807;BME280;14380;49.910;6.792;2023-06-04T12:22:00;99027.81;;;25.64;49.42
26807;BME280;14380;49.910;6.792;2023-06-04T12:24:28;99030.41;;;25.41;46.49
26807;BME280;14380;49.910;6.792;2023-06-04T12:27:05;99025.38;;;26.18;48.41
26807;BME280;14380;49.910;6.792;2023-06-04T12:29:34;99025.44;;;25.61;45.29
26807;BME280;14380;49.910;6.792;2023-06-04T12:32:04;99027.50;;;26.46;48.13
26807;BME280;14380;49.910;6.792;2023-06-04T12:34:34;99021.03;;;25.68;46.07
26807;BME280;14380;49.910;6.792;2023-06-04T12:37:01;99017.91;;;25.48;46.75
26807;BME280;14380;49.910;6.792;2023-06-04T12:39:31;99028.72;;;25.88;50.62
26807;BME280;14380;49.910;6.792;2023-06-04T12:41:58;99024.66;;;25.52;46.41
26807;BME280;14380;49.910;6.792;2023-06-04T12:44:24;99021.31;;;26.13;49.40
26807;BME280;14380;49.910;6.792;2023-06-04T12:46:51;99018.63;;;26.05;47.30
26807;BME280;14380;49.910;6.792;2023-06-04T12:49:18;99017.25;;;26.09;46.71
26807;BME280;14380;49.910;6.792;2023-06-04T12:51:46;99020.00;;;25.69;46.49
26807;BME280;14380;49.910;6.792;2023-06-04T12:54:12;99013.75;;;26.32;49.57
26807;BME280;14380;49.910;6.792;2023-06-04T12:56:39;99018.28;;;26.40;46.22
26807;BME280;14380;49.910;6.792;2023-06-04T12:59:06;99011.56;;;26.51;47.64
26807;BME280;14380;49.910;6.792;2023-06-04T13:01:33;99013.38;;;25.80;45.76
26807;BME280;14380;49.910;6.792;2023-06-04T13:03:59;99001.94;;;26.02;45.96